Historique des mesures à Cassis (13260), France
Quotidien Résumé Mai 21, 2017 Unités:  Métrique    US   Métrique/US
« Précédent (Jour)
Suivant (Jour) »
Quotidien Hebdomadaire Mensuel Annuel Période au choix
  Maximum: Minimum: Moyenne:
Température: TemperatureC °C 14.5 °C 18.9 °C
Point de rosée: DewpointC °C 4.0 °C 7.8 °C
Humidité: Humidity % 37 % 46 %
Vitesse du vent: 0 km/h 0 km/h 5 km/h
Rafales: 0 km/h - -
Vent:- - SE
Pression: PressurehPa hPa 1015.1 hPa -
Précipitations: 0.0 mm    
Historical Graphs
 
 
Mesures pour : Mai 21, 2017
Heure Temperature Point de rosée Pression Vent Vitesse du vent Rafales Humidité Pluie (par heure) Conditions
TemperatureC °C DewpointC °C PressurehPa hPa Calm     Humidity % HourlyPrecipMM mm SoftwareType W/m2
00:10 18.2 °C 4.0 °C 1015.5 hPa NW 24.3 km/h 38.8 km/h 39 % 0.0 mm open2300-1.11 W/m2
01:10 17.4 °C 4.3 °C 1016.5 hPa North 11.6 km/h 16.3 km/h 42 % 0.0 mm open2300-1.11 W/m2
02:10 16.4 °C 5.0 °C 1015.8 hPa NNW 19.6 km/h 19.6 km/h 47 % 0.0 mm open2300-1.11 W/m2
03:10 15.8 °C 4.8 °C 1015.5 hPa North 3.4 km/h 7.6 km/h 48 % 0.0 mm open2300-1.11 W/m2
04:10 15.0 °C 5.2 °C 1015.5 hPa NNE 5.6 km/h 9.3 km/h 52 % 0.0 mm open2300-1.11 W/m2
05:10 15.0 °C 4.9 °C 1015.1 hPa Calm     51 % 0.0 mm open2300-1.11 W/m2
06:10 14.5 °C 4.8 °C 1015.1 hPa NNE 3.4 km/h 3.4 km/h 52 % 0.0 mm open2300-1.11 W/m2
07:11 15.2 °C 5.1 °C 1015.5 hPa North 4.2 km/h 5.6 km/h 51 % 0.0 mm open2300-1.11 W/m2
08:10 19.4 °C 7.4 °C 1016.1 hPa NNE 4.2 km/h 10.3 km/h 46 % 0.0 mm open2300-1.11 W/m2
09:10 18.3 °C 7.1 °C 1016.1 hPa Calm     48 % 0.0 mm open2300-1.11 W/m2
10:10 19.1 °C 7.5 °C 1016.5 hPa SE 9.3 km/h 12.2 km/h 47 % 0.0 mm open2300-1.11 W/m2
11:10 23.3 °C 9.0 °C 1017.2 hPa SSE 10.3 km/h 10.3 km/h 40 % 0.0 mm open2300-1.11 W/m2
12:10 24.7 °C 9.4 °C 1017.8 hPa SE 2.9 km/h 3.4 km/h 38 % 0.0 mm open2300-1.11 W/m2
14:10 25.3 °C 9.5 °C 1017.2 hPa Calm   15 km/h 37 % 0.0 mm open2300-1.11 W/m2
15:10 24.6 °C 10.5 °C 1016.8 hPa SW 7.6 km/h 9.8 km/h 41 % 0.0 mm open2300-1.11 W/m2
16:11 24.2 °C 11.1 °C 1016.8 hPa Calm   11.6 km/h 44 % 0.0 mm open2300-1.11 W/m2
17:10 23.8 °C 11.8 °C 1016.5 hPa SSW 12.2 km/h 14 km/h 47 % 0.0 mm open2300-1.11 W/m2
18:10 23.2 °C 12.2 °C 1016.5 hPa Calm   10.9 km/h 50 % 0.0 mm open2300-1.11 W/m2
19:10 22.5 °C 12.1 °C 1016.1 hPa SSE 2.3 km/h 5.1 km/h 52 % 0.0 mm open2300-1.11 W/m2
20:10 21.9 °C 11.3 °C 1016.1 hPa Calm   5.1 km/h 51 % 0.0 mm open2300-1.11 W/m2
21:10 20.1 °C 11.0 °C 1016.5 hPa Calm     56 % 0.0 mm open2300-1.11 W/m2
22:10 18.8 °C 10.4 °C 1016.8 hPa Calm     58 % 0.0 mm open2300-1.11 W/m2
23:10 17.6 °C 9.7 °C 1016.8 hPa Calm     60 % 0.0 mm open2300-1.11 W/m2
Observations météo à CASSIS
WU-History script by Weather Underground - 1 mb